createdAt,value
2022-11-18T00:02:01.238Z,16.15
2022-11-18T00:04:29.066Z,15.38
2022-11-18T00:06:56.863Z,15.57
2022-11-18T00:09:24.504Z,15.52
2022-11-18T00:12:11.209Z,13.30
2022-11-18T00:14:39.595Z,15.00
2022-11-18T00:17:08.073Z,13.45
2022-11-18T00:19:38.318Z,13.65
2022-11-18T00:22:11.214Z,16.02
2022-11-18T00:24:38.981Z,14.60
2022-11-18T00:27:06.904Z,13.98
2022-11-18T00:29:34.442Z,13.38
2022-11-18T00:32:02.107Z,12.98
2022-11-18T00:34:29.805Z,13.68
2022-11-18T00:36:57.318Z,16.65
2022-11-18T00:39:26.122Z,16.17
2022-11-18T00:42:12.415Z,13.48
2022-11-18T00:44:39.912Z,19.50
2022-11-18T00:47:08.262Z,16.67
2022-11-18T00:49:35.757Z,14.63
2022-11-18T00:52:03.825Z,16.42
2022-11-18T00:54:31.699Z,16.70
2022-11-18T00:56:59.439Z,15.38
2022-11-18T00:59:27.073Z,14.80
2022-11-18T01:01:55.951Z,17.20
2022-11-18T01:04:23.868Z,17.95
2022-11-18T01:06:51.457Z,17.45
2022-11-18T01:09:19.477Z,16.98
2022-11-18T01:12:06.731Z,15.95
2022-11-18T01:14:35.305Z,15.73
2022-11-18T01:17:04.597Z,18.48
2022-11-18T01:19:33.070Z,15.38
2022-11-18T01:22:03.812Z,16.05
2022-11-18T01:24:33.610Z,17.65
2022-11-18T01:27:02.080Z,19.73
2022-11-18T01:29:29.868Z,16.70
2022-11-18T01:32:26.527Z,16.13
2022-11-18T01:34:45.151Z,13.40
2022-11-18T01:37:12.846Z,15.27
2022-11-18T01:39:41.038Z,17.23
2022-11-18T01:42:16.933Z,17.77
2022-11-18T01:44:59.009Z,17.05
2022-11-18T01:47:31.718Z,16.63
2022-11-18T01:50:00.424Z,15.07
2022-11-18T01:52:29.989Z,17.63
2022-11-18T01:55:03.580Z,17.25
2022-11-18T01:57:32.567Z,17.33
2022-11-18T02:00:04.029Z,13.77
2022-11-18T02:02:37.641Z,17.27
2022-11-18T02:05:07.870Z,16.85
2022-11-18T02:07:39.381Z,15.75
2022-11-18T02:10:08.139Z,16.13
2022-11-18T02:12:37.630Z,16.08
2022-11-18T02:15:05.804Z,20.75
2022-11-18T02:18:15.287Z,16.60
2022-11-18T02:20:46.606Z,15.23
2022-11-18T02:23:51.366Z,16.48
2022-11-18T02:27:14.515Z,15.93
2022-11-18T02:29:54.139Z,16.65
2022-11-18T02:32:38.203Z,14.82
2022-11-18T02:35:24.542Z,21.13
2022-11-18T02:37:59.302Z,18.13
2022-11-18T02:40:37.454Z,18.92
2022-11-18T02:43:09.434Z,17.25
2022-11-18T02:45:43.147Z,17.98
2022-11-18T02:48:13.848Z,18.25
2022-11-18T02:50:47.590Z,18.98
2022-11-18T02:53:18.994Z,15.45
2022-11-18T02:55:48.497Z,18.92
2022-11-18T02:58:19.218Z,17.27
2022-11-18T03:00:54.768Z,18.08
2022-11-18T03:03:31.293Z,14.65
2022-11-18T03:06:30.128Z,20.55
2022-11-18T03:09:01.040Z,16.50
2022-11-18T03:11:38.766Z,17.67
2022-11-18T03:14:57.021Z,14.52
2022-11-18T03:17:29.967Z,14.48
2022-11-18T03:20:03.491Z,14.95
2022-11-18T03:22:58.141Z,16.40
2022-11-18T03:25:45.383Z,13.13
2022-11-18T03:28:44.994Z,14.05
2022-11-18T03:31:21.699Z,19.90
2022-11-18T03:33:54.563Z,12.90
2022-11-18T03:36:27.524Z,13.70
2022-11-18T03:39:01.236Z,17.40
2022-11-18T03:41:35.558Z,14.93
2022-11-18T03:44:13.589Z,15.68
2022-11-18T03:46:46.500Z,16.67
2022-11-18T03:49:22.113Z,14.40
2022-11-18T03:51:54.963Z,14.82
2022-11-18T03:54:27.405Z,16.65
2022-11-18T03:57:17.298Z,13.88
2022-11-18T04:00:06.010Z,15.15
2022-11-18T04:02:35.152Z,14.40
2022-11-18T04:05:05.635Z,17.00
2022-11-18T04:07:55.314Z,13.65
2022-11-18T04:10:38.284Z,13.25
2022-11-18T04:13:20.333Z,16.33
2022-11-18T04:15:48.027Z,16.63
2022-11-18T04:18:15.602Z,14.10
2022-11-18T04:20:44.691Z,15.32
2022-11-18T04:23:13.406Z,12.85
2022-11-18T04:25:40.961Z,14.65
2022-11-18T04:28:10.039Z,12.73
2022-11-18T04:30:39.190Z,16.52
2022-11-18T04:33:09.912Z,14.55
2022-11-18T04:35:37.608Z,16.25
2022-11-18T04:38:05.333Z,13.60
2022-11-18T04:40:33.504Z,15.30
2022-11-18T04:43:02.188Z,14.82
2022-11-18T04:45:30.130Z,13.77
2022-11-18T04:48:03.110Z,16.27
2022-11-18T04:50:31.263Z,16.52
2022-11-18T04:52:58.886Z,15.27
2022-11-18T04:55:27.381Z,15.93
2022-11-18T04:57:55.236Z,17.38
2022-11-18T05:00:24.102Z,15.18
2022-11-18T05:02:51.603Z,14.48
2022-11-18T05:05:19.245Z,16.77
2022-11-18T05:07:46.962Z,15.65
2022-11-18T05:10:14.758Z,14.35
2022-11-18T05:12:52.618Z,15.93
2022-11-18T05:15:22.562Z,13.18
2022-11-18T05:17:50.435Z,16.23
2022-11-18T05:20:18.250Z,16.77
2022-11-18T05:22:46.033Z,12.77
2022-11-18T05:25:13.685Z,15.02
2022-11-18T05:27:41.202Z,14.68
2022-11-18T05:30:09.723Z,17.33
2022-11-18T05:32:37.470Z,16.38
2022-11-18T05:35:05.379Z,14.05
2022-11-18T05:37:33.797Z,15.85
2022-11-18T05:40:01.506Z,16.52
2022-11-18T05:42:47.883Z,15.93
2022-11-18T05:45:16.228Z,17.77
2022-11-18T05:48:04.635Z,18.02
2022-11-18T05:50:35.173Z,17.45
2022-11-18T05:53:03.646Z,17.50
2022-11-18T05:55:44.660Z,15.30
2022-11-18T05:58:12.209Z,16.85
2022-11-18T06:00:40.289Z,16.83
2022-11-18T06:03:19.348Z,20.27
2022-11-18T06:05:48.715Z,16.50
2022-11-18T06:08:19.718Z,17.50
2022-11-18T06:10:48.766Z,15.43
2022-11-18T06:13:23.747Z,17.02
2022-11-18T06:15:51.587Z,18.13
2022-11-18T06:18:26.443Z,17.35
2022-11-18T06:20:57.990Z,21.33
2022-11-18T06:23:28.648Z,17.30
2022-11-18T06:25:56.696Z,16.30
2022-11-18T06:28:25.500Z,20.02
2022-11-18T06:30:53.193Z,16.65
2022-11-18T06:33:20.780Z,18.60
2022-11-18T06:35:49.059Z,16.10
2022-11-18T06:38:16.623Z,16.05
2022-11-18T06:40:44.898Z,20.48
2022-11-18T06:43:31.546Z,17.67
2022-11-18T06:46:19.474Z,18.10
2022-11-18T06:48:47.542Z,18.73
2022-11-18T06:52:29.518Z,17.48
2022-11-18T06:54:57.130Z,20.00
2022-11-18T06:57:24.882Z,17.83
2022-11-18T06:59:53.862Z,18.02
2022-11-18T07:02:24.487Z,18.52
2022-11-18T07:04:52.442Z,19.27
2022-11-18T07:07:20.452Z,21.48
2022-11-18T07:09:48.170Z,18.63
2022-11-18T07:12:17.825Z,17.88
2022-11-18T07:14:45.673Z,18.65
2022-11-18T07:17:13.327Z,15.70
2022-11-18T07:19:40.955Z,18.23
2022-11-18T07:22:08.950Z,20.17
2022-11-18T07:24:38.008Z,22.27
2022-11-18T07:27:06.217Z,18.00
2022-11-18T07:29:34.129Z,20.10
2022-11-18T07:32:03.239Z,18.80
2022-11-18T07:34:31.073Z,20.70
2022-11-18T07:36:58.612Z,18.48
2022-11-18T07:39:26.664Z,19.27
2022-11-18T07:41:55.235Z,18.80
2022-11-18T07:44:22.808Z,18.25
2022-11-18T07:46:51.147Z,16.83
2022-11-18T07:49:19.349Z,16.60
2022-11-18T07:51:47.182Z,20.73
2022-11-18T07:54:18.547Z,19.10
2022-11-18T07:56:46.211Z,18.45
2022-11-18T07:59:14.037Z,16.33
2022-11-18T08:01:42.034Z,18.90
2022-11-18T08:04:12.135Z,18.00
2022-11-18T08:06:40.513Z,19.48
2022-11-18T08:09:09.072Z,18.25
2022-11-18T08:11:38.200Z,17.30
2022-11-18T08:14:07.493Z,15.77
2022-11-18T08:16:35.103Z,20.60
2022-11-18T08:19:03.224Z,16.35
2022-11-18T08:21:31.415Z,18.92
2022-11-18T08:23:59.311Z,19.60
2022-11-18T08:26:30.034Z,21.60
2022-11-18T08:28:58.038Z,19.20
2022-11-18T08:31:29.171Z,17.88
2022-11-18T08:34:07.696Z,18.13
2022-11-18T08:36:37.374Z,25.05
2022-11-18T08:39:09.132Z,22.77
2022-11-18T08:44:12.763Z,15.52
2022-11-18T08:46:41.969Z,16.45
2022-11-18T08:49:09.578Z,18.33
2022-11-18T08:51:38.048Z,13.75
2022-11-18T08:54:05.688Z,17.65
2022-11-18T08:56:33.920Z,15.30
2022-11-18T08:59:01.668Z,17.38
2022-11-18T09:01:29.524Z,16.65
2022-11-18T09:03:57.950Z,18.20
2022-11-18T09:06:26.746Z,16.23
2022-11-18T09:08:54.829Z,19.10
2022-11-18T09:16:46.215Z,17.48
2022-11-18T09:22:04.817Z,17.10
2022-11-18T09:24:33.641Z,20.70
2022-11-18T09:27:09.598Z,24.98
2022-11-18T09:29:40.463Z,28.10
2022-11-18T09:32:08.180Z,27.50
2022-11-18T09:34:36.272Z,28.10
2022-11-18T09:39:37.140Z,26.65
2022-11-18T09:42:26.616Z,29.02
2022-11-18T09:45:12.962Z,35.38
2022-11-18T09:47:41.736Z,25.52
2022-11-18T09:50:48.480Z,30.25
2022-11-18T09:53:21.562Z,36.60
2022-11-18T09:55:51.194Z,36.83
2022-11-18T09:58:26.446Z,41.05
2022-11-18T10:00:54.909Z,35.92
2022-11-18T10:03:25.685Z,41.25
2022-11-18T10:06:18.007Z,39.17
2022-11-18T10:09:03.100Z,38.75
2022-11-18T10:11:50.510Z,39.92
2022-11-18T10:14:36.548Z,43.10
2022-11-18T10:17:23.145Z,41.38
2022-11-18T10:20:03.711Z,40.03
2022-11-18T10:22:47.207Z,38.03
2022-11-18T10:25:17.844Z,32.72
2022-11-18T10:27:48.983Z,37.67
2022-11-18T10:30:21.699Z,35.35
2022-11-18T10:33:04.525Z,29.33
2022-11-18T10:35:36.023Z,26.55
2022-11-18T10:38:17.904Z,32.65
2022-11-18T10:41:01.705Z,29.40
2022-11-18T10:43:56.124Z,28.75
2022-11-18T10:46:33.739Z,48.25
2022-11-18T10:49:10.182Z,32.80
2022-11-18T10:51:46.551Z,31.48
2022-11-18T10:54:17.165Z,28.25
2022-11-18T10:56:57.747Z,27.50
2022-11-18T10:59:35.057Z,27.42
2022-11-18T11:02:08.333Z,24.88
2022-11-18T11:04:39.337Z,26.67
2022-11-18T11:10:21.057Z,23.98
2022-11-18T11:13:01.955Z,24.90
2022-11-18T11:15:41.444Z,24.20
2022-11-18T11:18:37.499Z,23.45
2022-11-18T11:21:11.226Z,25.27
2022-11-18T11:23:39.488Z,25.60
2022-11-18T11:29:33.337Z,27.00
2022-11-18T11:32:32.491Z,21.63
2022-11-18T11:35:10.574Z,25.67
2022-11-18T11:37:56.016Z,20.77
2022-11-18T11:40:33.847Z,20.02
2022-11-18T11:43:19.387Z,25.80
2022-11-18T11:46:27.602Z,23.17
2022-11-18T11:49:18.829Z,19.45
2022-11-18T11:52:03.987Z,21.48
2022-11-18T11:54:53.225Z,21.33
2022-11-18T11:57:39.473Z,18.73
2022-11-18T12:00:14.368Z,22.48
2022-11-18T12:03:11.089Z,22.25
2022-11-18T12:05:43.190Z,27.30
2022-11-18T12:08:22.960Z,31.42
2022-11-18T12:11:27.483Z,23.30
2022-11-18T12:13:55.007Z,28.55
2022-11-18T12:16:33.983Z,27.40
2022-11-18T12:19:08.642Z,34.05
2022-11-18T12:21:45.708Z,26.45
2022-11-18T12:24:39.058Z,26.25
2022-11-18T12:27:12.482Z,28.25
2022-11-18T12:29:55.614Z,28.48
2022-11-18T12:32:28.965Z,30.50
2022-11-18T12:35:13.839Z,25.75
2022-11-18T12:37:51.615Z,26.45
2022-11-18T12:40:52.344Z,25.80
2022-11-18T12:43:45.008Z,23.85
2022-11-18T12:46:31.235Z,30.23
2022-11-18T12:49:22.532Z,26.17
2022-11-18T12:54:30.345Z,28.92
2022-11-18T12:57:22.702Z,26.67
2022-11-18T12:59:51.419Z,25.25
2022-11-18T13:02:29.971Z,28.70
2022-11-18T13:05:17.171Z,25.88
2022-11-18T13:08:10.002Z,27.92
2022-11-18T13:10:43.553Z,27.25
2022-11-18T13:13:26.530Z,22.45
2022-11-18T13:16:16.517Z,25.20
2022-11-18T13:18:48.894Z,25.52
2022-11-18T13:21:43.153Z,26.92
2022-11-18T13:24:19.312Z,25.30
2022-11-18T13:26:54.868Z,26.02
2022-11-18T13:29:49.736Z,27.83
2022-11-18T13:32:27.212Z,27.33
2022-11-18T13:35:05.853Z,28.95
2022-11-18T13:37:36.765Z,28.40
2022-11-18T13:40:16.912Z,24.92
2022-11-18T13:42:45.712Z,23.23
2022-11-18T13:45:13.697Z,25.08
2022-11-18T13:47:51.293Z,22.90
2022-11-18T13:50:35.358Z,25.58
2022-11-18T13:53:27.660Z,24.20
2022-11-18T13:56:04.327Z,23.17
2022-11-18T13:59:10.346Z,25.80
2022-11-18T14:01:31.414Z,28.48
2022-11-18T14:04:15.263Z,29.27
2022-11-18T14:06:42.908Z,26.60
2022-11-18T14:09:29.988Z,26.48
2022-11-18T14:12:14.723Z,46.53
2022-11-18T14:14:43.659Z,28.48
2022-11-18T14:19:49.477Z,32.58
2022-11-18T14:22:23.868Z,31.27
2022-11-18T14:25:00.675Z,34.88
2022-11-18T14:27:42.456Z,38.85
2022-11-18T14:30:30.703Z,28.92
2022-11-18T14:33:11.338Z,24.63
2022-11-18T14:35:40.593Z,25.10
2022-11-18T14:41:07.961Z,30.13
2022-11-18T14:43:36.085Z,26.40
2022-11-18T14:46:12.335Z,29.38
2022-11-18T14:48:40.171Z,25.23
2022-11-18T14:51:11.696Z,23.85
2022-11-18T14:53:39.149Z,27.80
2022-11-18T14:56:17.737Z,30.23
2022-11-18T14:58:45.334Z,30.75
2022-11-18T15:01:14.211Z,36.10
2022-11-18T15:03:42.774Z,35.00
2022-11-18T15:06:21.946Z,32.80
2022-11-18T15:08:52.811Z,30.52
2022-11-18T15:11:20.708Z,28.42
2022-11-18T15:13:49.152Z,30.50
2022-11-18T15:16:22.537Z,32.65
2022-11-18T15:18:53.046Z,26.48
2022-11-18T15:21:24.779Z,22.90
2022-11-18T15:23:53.083Z,27.20
2022-11-18T15:26:26.755Z,23.35
2022-11-18T15:28:57.044Z,26.45
2022-11-18T15:31:25.700Z,27.95
2022-11-18T15:33:53.697Z,30.53
2022-11-18T15:36:26.463Z,26.58
2022-11-18T15:38:55.209Z,30.52
2022-11-18T15:41:27.662Z,29.27
2022-11-18T15:43:57.233Z,30.20
2022-11-18T15:48:55.364Z,29.37
2022-11-18T15:51:25.029Z,32.35
2022-11-18T15:53:52.947Z,26.63
2022-11-18T15:56:20.557Z,29.25
2022-11-18T16:01:37.189Z,28.77
2022-11-18T16:04:06.382Z,21.25
2022-11-18T16:06:36.974Z,22.45
2022-11-18T16:09:06.150Z,19.40
2022-11-18T16:11:52.545Z,19.70
2022-11-18T16:14:21.924Z,20.17
2022-11-18T16:16:51.923Z,20.42
2022-11-18T16:19:24.667Z,21.52
2022-11-18T16:21:54.897Z,19.42
2022-11-18T16:24:28.767Z,20.60
2022-11-18T16:26:56.971Z,20.10
2022-11-18T16:29:25.051Z,20.45
2022-11-18T16:31:54.372Z,20.85
2022-11-18T16:34:27.359Z,20.08
2022-11-18T16:36:57.576Z,17.60
2022-11-18T16:39:27.783Z,18.50
2022-11-18T16:42:02.077Z,17.30
2022-11-18T16:44:35.067Z,20.50
2022-11-18T16:47:08.953Z,20.83
2022-11-18T16:49:40.330Z,24.20
2022-11-18T16:52:08.745Z,19.55
2022-11-18T16:54:41.098Z,69.30
2022-11-18T16:57:12.808Z,19.70
2022-11-18T16:59:40.640Z,18.67
2022-11-18T17:02:13.117Z,17.15
2022-11-18T17:04:40.839Z,18.48
2022-11-18T17:07:09.587Z,17.58
2022-11-18T17:09:37.502Z,19.90
2022-11-18T17:12:07.870Z,16.38
2022-11-18T17:14:38.205Z,22.27
2022-11-18T17:17:07.687Z,17.38
2022-11-18T17:19:35.690Z,17.83
2022-11-18T17:22:03.372Z,18.27
2022-11-18T17:24:31.459Z,16.52
2022-11-18T17:26:59.160Z,14.95
2022-11-18T17:29:27.100Z,16.38
2022-11-18T17:31:55.509Z,18.50
2022-11-18T17:34:23.115Z,17.95
2022-11-18T17:36:51.036Z,18.25
2022-11-18T17:39:20.833Z,18.48
2022-11-18T17:42:07.330Z,22.08
2022-11-18T17:44:35.390Z,21.13
2022-11-18T17:47:02.995Z,20.48
2022-11-18T17:49:31.203Z,22.05
2022-11-18T17:52:00.895Z,22.63
2022-11-18T17:54:28.690Z,22.90
2022-11-18T17:56:56.272Z,26.08
2022-11-18T17:59:24.778Z,26.48
2022-11-18T18:01:58.878Z,29.33
2022-11-18T18:04:27.561Z,24.95
2022-11-18T18:06:55.632Z,25.60
2022-11-18T18:09:31.006Z,26.15
2022-11-18T18:12:21.986Z,30.90
2022-11-18T18:14:49.845Z,30.80
2022-11-18T18:17:17.647Z,33.45
2022-11-18T18:19:45.989Z,34.83
2022-11-18T18:22:14.185Z,37.28
2022-11-18T18:24:42.482Z,45.47
2022-11-18T18:27:10.005Z,38.40
2022-11-18T18:29:38.569Z,37.80
2022-11-18T18:32:06.201Z,36.47
2022-11-18T18:34:33.695Z,43.60
2022-11-18T18:37:05.885Z,44.42
2022-11-18T18:39:34.802Z,41.50
2022-11-18T18:42:03.660Z,38.17
2022-11-18T18:44:51.738Z,40.00
2022-11-18T18:47:19.273Z,40.60
2022-11-18T18:49:47.202Z,49.17
2022-11-18T18:52:14.754Z,45.88
2022-11-18T18:54:42.397Z,53.92
2022-11-18T18:57:10.266Z,40.05
2022-11-18T18:59:38.420Z,46.55
2022-11-18T19:02:05.993Z,35.15
2022-11-18T19:04:34.238Z,34.45
2022-11-18T19:07:03.479Z,35.53
2022-11-18T19:09:31.209Z,36.80
2022-11-18T19:12:20.681Z,31.90
2022-11-18T19:14:48.312Z,32.38
2022-11-18T19:17:17.612Z,34.22
2022-11-18T19:20:03.964Z,26.95
2022-11-18T19:22:32.970Z,24.67
2022-11-18T19:25:01.685Z,21.13
2022-11-18T19:27:29.921Z,22.27
2022-11-18T19:29:57.587Z,25.13
2022-11-18T19:32:25.553Z,24.05
2022-11-18T19:34:53.160Z,21.33
2022-11-18T19:37:20.675Z,22.52
2022-11-18T19:39:48.713Z,21.42
2022-11-18T19:42:16.286Z,22.40
2022-11-18T19:44:44.778Z,19.98
2022-11-18T19:47:12.334Z,20.33
2022-11-18T19:49:42.358Z,22.85
2022-11-18T19:52:09.898Z,20.38
2022-11-18T19:54:37.548Z,17.83
2022-11-18T19:57:05.237Z,21.23
2022-11-18T19:59:34.323Z,22.52
2022-11-18T20:02:02.054Z,23.75
2022-11-18T20:04:29.954Z,20.00
2022-11-18T20:06:57.880Z,20.63
2022-11-18T20:09:25.601Z,21.20
2022-11-18T20:11:53.291Z,21.95
2022-11-18T20:14:20.826Z,23.98
2022-11-18T20:16:51.699Z,21.17
2022-11-18T20:19:19.403Z,40.83
2022-11-18T20:21:48.866Z,27.92
2022-11-18T20:24:18.703Z,26.90
2022-11-18T20:26:47.157Z,22.10
2022-11-18T20:29:14.712Z,21.95
2022-11-18T20:31:42.735Z,23.55
2022-11-18T20:34:14.356Z,23.50
2022-11-18T20:36:42.627Z,25.52
2022-11-18T20:39:15.900Z,23.47
2022-11-18T20:42:04.251Z,21.13
2022-11-18T20:47:00.745Z,22.70
2022-11-18T20:49:28.357Z,26.30
2022-11-18T20:51:55.965Z,22.38
2022-11-18T20:54:23.610Z,25.33
2022-11-18T20:56:51.404Z,24.92
2022-11-18T20:59:19.756Z,23.52
2022-11-18T21:01:47.741Z,23.55
2022-11-18T21:04:15.618Z,20.58
2022-11-18T21:06:43.134Z,23.77
2022-11-18T21:09:10.827Z,21.92
2022-11-18T21:11:38.556Z,22.48
2022-11-18T21:14:23.549Z,22.70
2022-11-18T21:17:04.671Z,18.48
2022-11-18T21:19:33.993Z,22.25
2022-11-18T21:22:01.632Z,25.60
2022-11-18T21:24:30.365Z,25.33
2022-11-18T21:26:59.697Z,22.30
2022-11-18T21:29:30.277Z,20.33
2022-11-18T21:32:02.303Z,24.48
2022-11-18T21:34:31.152Z,24.45
2022-11-18T21:36:58.745Z,28.08
2022-11-18T21:39:27.291Z,27.10
2022-11-18T21:41:57.346Z,26.33
2022-11-18T21:44:28.382Z,28.08
2022-11-18T21:46:57.276Z,26.95
2022-11-18T21:49:24.864Z,28.38
2022-11-18T21:51:52.514Z,28.23
2022-11-18T21:54:20.062Z,29.60
2022-11-18T21:56:49.381Z,32.10
2022-11-18T21:59:17.275Z,28.48
2022-11-18T22:01:46.025Z,29.85
2022-11-18T22:04:35.330Z,31.95
2022-11-18T22:07:03.213Z,28.70
2022-11-18T22:09:36.493Z,30.98
2022-11-18T22:12:06.847Z,30.40
2022-11-18T22:14:36.060Z,26.42
2022-11-18T22:17:04.907Z,26.20
2022-11-18T22:22:01.264Z,26.42
2022-11-18T22:24:28.986Z,28.08
2022-11-18T22:26:57.342Z,27.60
2022-11-18T22:29:26.143Z,29.75
2022-11-18T22:31:54.208Z,34.00
2022-11-18T22:34:23.509Z,25.15
2022-11-18T22:36:51.075Z,29.27
2022-11-18T22:39:19.483Z,24.27
2022-11-18T22:42:06.018Z,32.42
2022-11-18T22:44:33.621Z,29.98
2022-11-18T22:47:01.250Z,30.10
2022-11-18T22:49:28.865Z,29.17
2022-11-18T22:51:56.544Z,28.45
2022-11-18T22:54:38.710Z,35.05
2022-11-18T22:57:07.642Z,34.85
2022-11-18T22:59:35.159Z,27.15
2022-11-18T23:02:03.473Z,32.90
2022-11-18T23:04:31.846Z,29.90
2022-11-18T23:06:59.438Z,31.95
2022-11-18T23:09:28.296Z,32.83
2022-11-18T23:12:15.246Z,37.55
2022-11-18T23:14:45.357Z,34.43
2022-11-18T23:17:13.193Z,38.50
2022-11-18T23:19:44.619Z,34.42
2022-11-18T23:22:12.900Z,29.52
2022-11-18T23:24:40.570Z,34.35
2022-11-18T23:27:08.525Z,34.30
2022-11-18T23:29:38.627Z,34.95
2022-11-18T23:32:06.306Z,34.55
2022-11-18T23:34:33.815Z,37.55
2022-11-18T23:37:01.434Z,33.00
2022-11-18T23:39:29.373Z,31.42
2022-11-18T23:41:57.213Z,32.67
2022-11-18T23:44:45.169Z,36.42
2022-11-18T23:47:13.494Z,34.55
2022-11-18T23:49:41.942Z,37.10
2022-11-18T23:52:09.629Z,35.92
2022-11-18T23:54:38.040Z,32.17
2022-11-18T23:57:05.669Z,31.67
2022-11-18T23:59:33.859Z,32.78
